sensor_id;sensor_type;location;lat;lon;timestamp;temperature;humidity
51996;DHT22;38010;53.264;6.592;2022-09-02T00:02:19;21.10;99.90
51996;DHT22;38010;53.264;6.592;2022-09-02T00:05:00;21.10;99.90
51996;DHT22;38010;53.264;6.592;2022-09-02T00:07:27;21.10;99.90
51996;DHT22;38010;53.264;6.592;2022-09-02T00:10:01;21.10;99.90
51996;DHT22;38010;53.264;6.592;2022-09-02T00:12:34;21.00;99.90
51996;DHT22;38010;53.264;6.592;2022-09-02T00:15:19;21.10;99.90
51996;DHT22;38010;53.264;6.592;2022-09-02T00:17:50;21.00;99.90
51996;DHT22;38010;53.264;6.592;2022-09-02T00:20:19;21.00;99.90
51996;DHT22;38010;53.264;6.592;2022-09-02T00:23:00;21.00;99.90
51996;DHT22;38010;53.264;6.592;2022-09-02T00:25:47;21.00;99.90
51996;DHT22;38010;53.264;6.592;2022-09-02T00:28:17;21.00;99.90
51996;DHT22;38010;53.264;6.592;2022-09-02T00:30:51;21.00;99.90
51996;DHT22;38010;53.264;6.592;2022-09-02T00:33:33;21.00;99.90
51996;DHT22;38010;53.264;6.592;2022-09-02T00:36:06;21.00;99.90
51996;DHT22;38010;53.264;6.592;2022-09-02T00:38:45;21.00;99.90
51996;DHT22;38010;53.264;6.592;2022-09-02T00:41:21;20.90;99.90
51996;DHT22;38010;53.264;6.592;2022-09-02T00:46:34;20.90;99.90
51996;DHT22;38010;53.264;6.592;2022-09-02T00:49:30;20.90;99.90
51996;DHT22;38010;53.264;6.592;2022-09-02T00:54:39;20.90;99.90
51996;DHT22;38010;53.264;6.592;2022-09-02T00:57:19;20.90;99.90
51996;DHT22;38010;53.264;6.592;2022-09-02T01:00:16;20.90;99.90
51996;DHT22;38010;53.264;6.592;2022-09-02T01:02:49;20.90;99.90
51996;DHT22;38010;53.264;6.592;2022-09-02T01:05:31;20.80;99.90
51996;DHT22;38010;53.264;6.592;2022-09-02T01:08:01;20.80;99.90
51996;DHT22;38010;53.264;6.592;2022-09-02T01:10:37;20.80;99.90
51996;DHT22;38010;53.264;6.592;2022-09-02T01:13:17;20.80;99.90
51996;DHT22;38010;53.264;6.592;2022-09-02T01:16:12;20.80;99.90
51996;DHT22;38010;53.264;6.592;2022-09-02T01:18:49;20.80;99.90
51996;DHT22;38010;53.264;6.592;2022-09-02T01:21:19;20.80;99.90
51996;DHT22;38010;53.264;6.592;2022-09-02T01:23:54;20.80;99.90
51996;DHT22;38010;53.264;6.592;2022-09-02T01:26:28;20.80;99.90
51996;DHT22;38010;53.264;6.592;2022-09-02T01:29:01;20.80;99.90
51996;DHT22;38010;53.264;6.592;2022-09-02T01:31:30;20.80;99.90
51996;DHT22;38010;53.264;6.592;2022-09-02T01:34:02;20.80;99.90
51996;DHT22;38010;53.264;6.592;2022-09-02T01:36:36;20.80;99.90
51996;DHT22;38010;53.264;6.592;2022-09-02T01:39:15;20.70;99.90
51996;DHT22;38010;53.264;6.592;2022-09-02T01:41:50;20.70;99.90
51996;DHT22;38010;53.264;6.592;2022-09-02T01:44:28;20.70;99.90
51996;DHT22;38010;53.264;6.592;2022-09-02T01:47:04;20.70;99.90
51996;DHT22;38010;53.264;6.592;2022-09-02T01:49:40;20.70;99.90
51996;DHT22;38010;53.264;6.592;2022-09-02T01:52:16;20.70;99.90
51996;DHT22;38010;53.264;6.592;2022-09-02T01:54:51;20.70;99.90
51996;DHT22;38010;53.264;6.592;2022-09-02T01:57:19;20.70;99.90
51996;DHT22;38010;53.264;6.592;2022-09-02T01:59:53;20.70;99.90
51996;DHT22;38010;53.264;6.592;2022-09-02T02:02:34;20.70;99.90
51996;DHT22;38010;53.264;6.592;2022-09-02T02:05:06;20.70;99.90
51996;DHT22;38010;53.264;6.592;2022-09-02T02:07:42;20.70;99.90
51996;DHT22;38010;53.264;6.592;2022-09-02T02:10:21;20.70;99.90
51996;DHT22;38010;53.264;6.592;2022-09-02T02:12:59;20.60;99.90
51996;DHT22;38010;53.264;6.592;2022-09-02T02:15:35;20.60;99.90
51996;DHT22;38010;53.264;6.592;2022-09-02T02:18:15;20.60;99.90
51996;DHT22;38010;53.264;6.592;2022-09-02T02:20:47;20.60;99.90
51996;DHT22;38010;53.264;6.592;2022-09-02T02:23:19;20.60;99.90
51996;DHT22;38010;53.264;6.592;2022-09-02T02:25:49;20.60;99.90
51996;DHT22;38010;53.264;6.592;2022-09-02T02:28:26;20.60;99.90
51996;DHT22;38010;53.264;6.592;2022-09-02T02:31:01;20.60;99.90
51996;DHT22;38010;53.264;6.592;2022-09-02T02:33:34;20.60;99.90
51996;DHT22;38010;53.264;6.592;2022-09-02T02:36:11;20.60;99.90
51996;DHT22;38010;53.264;6.592;2022-09-02T02:38:49;20.60;99.90
51996;DHT22;38010;53.264;6.592;2022-09-02T02:41:18;20.60;99.90
51996;DHT22;38010;53.264;6.592;2022-09-02T02:43:49;20.60;99.90
51996;DHT22;38010;53.264;6.592;2022-09-02T02:46:20;20.50;99.90
51996;DHT22;38010;53.264;6.592;2022-09-02T02:49:04;20.60;99.90
51996;DHT22;38010;53.264;6.592;2022-09-02T02:51:34;20.50;99.90
51996;DHT22;38010;53.264;6.592;2022-09-02T02:54:05;20.50;99.90
51996;DHT22;38010;53.264;6.592;2022-09-02T02:56:34;20.50;99.90
51996;DHT22;38010;53.264;6.592;2022-09-02T02:59:15;20.50;99.90
51996;DHT22;38010;53.264;6.592;2022-09-02T03:01:46;20.40;99.90
51996;DHT22;38010;53.264;6.592;2022-09-02T03:04:18;20.40;99.90
51996;DHT22;38010;53.264;6.592;2022-09-02T03:06:49;20.50;99.90
51996;DHT22;38010;53.264;6.592;2022-09-02T03:09:19;20.50;99.90
51996;DHT22;38010;53.264;6.592;2022-09-02T03:11:52;20.40;99.90
51996;DHT22;38010;53.264;6.592;2022-09-02T03:14:22;20.40;99.90
51996;DHT22;38010;53.264;6.592;2022-09-02T03:16:59;20.40;99.90
51996;DHT22;38010;53.264;6.592;2022-09-02T03:19:34;20.40;99.90
51996;DHT22;38010;53.264;6.592;2022-09-02T03:22:01;20.40;99.90
51996;DHT22;38010;53.264;6.592;2022-09-02T03:24:33;20.30;99.90
51996;DHT22;38010;53.264;6.592;2022-09-02T03:27:04;20.40;99.90
51996;DHT22;38010;53.264;6.592;2022-09-02T03:29:33;20.30;99.90
51996;DHT22;38010;53.264;6.592;2022-09-02T03:32:06;20.40;99.90
51996;DHT22;38010;53.264;6.592;2022-09-02T03:34:41;20.40;99.90
51996;DHT22;38010;53.264;6.592;2022-09-02T03:37:17;20.40;99.90
51996;DHT22;38010;53.264;6.592;2022-09-02T03:39:51;20.30;99.90
51996;DHT22;38010;53.264;6.592;2022-09-02T03:42:19;20.40;99.90
51996;DHT22;38010;53.264;6.592;2022-09-02T03:44:53;20.30;99.90
51996;DHT22;38010;53.264;6.592;2022-09-02T03:47:22;20.30;99.90
51996;DHT22;38010;53.264;6.592;2022-09-02T03:49:58;20.30;99.90
51996;DHT22;38010;53.264;6.592;2022-09-02T03:52:33;20.30;99.90
51996;DHT22;38010;53.264;6.592;2022-09-02T03:55:04;20.30;99.90
51996;DHT22;38010;53.264;6.592;2022-09-02T03:57:42;20.20;99.90
51996;DHT22;38010;53.264;6.592;2022-09-02T04:00:16;20.20;99.90
51996;DHT22;38010;53.264;6.592;2022-09-02T04:02:46;20.20;99.90
51996;DHT22;38010;53.264;6.592;2022-09-02T04:05:19;20.20;99.90
51996;DHT22;38010;53.264;6.592;2022-09-02T04:07:59;20.20;99.90
51996;DHT22;38010;53.264;6.592;2022-09-02T04:10:32;20.20;99.90
51996;DHT22;38010;53.264;6.592;2022-09-02T04:13:04;20.20;99.90
51996;DHT22;38010;53.264;6.592;2022-09-02T04:15:45;20.20;99.90
51996;DHT22;38010;53.264;6.592;2022-09-02T04:18:17;20.20;99.90
51996;DHT22;38010;53.264;6.592;2022-09-02T04:20:49;20.20;99.90
51996;DHT22;38010;53.264;6.592;2022-09-02T04:23:19;20.20;99.90
51996;DHT22;38010;53.264;6.592;2022-09-02T04:25:49;20.20;99.90
51996;DHT22;38010;53.264;6.592;2022-09-02T04:28:23;20.20;99.90
51996;DHT22;38010;53.264;6.592;2022-09-02T04:30:52;20.20;99.90
51996;DHT22;38010;53.264;6.592;2022-09-02T04:33:26;20.10;99.90
51996;DHT22;38010;53.264;6.592;2022-09-02T04:36:02;20.20;99.90
51996;DHT22;38010;53.264;6.592;2022-09-02T04:38:31;20.10;99.90
51996;DHT22;38010;53.264;6.592;2022-09-02T04:41:13;20.10;99.90
51996;DHT22;38010;53.264;6.592;2022-09-02T04:43:48;20.10;99.90
51996;DHT22;38010;53.264;6.592;2022-09-02T04:46:23;20.10;99.90
51996;DHT22;38010;53.264;6.592;2022-09-02T04:48:56;20.10;99.90
51996;DHT22;38010;53.264;6.592;2022-09-02T04:51:26;20.10;99.90
51996;DHT22;38010;53.264;6.592;2022-09-02T04:54:00;20.10;99.90
51996;DHT22;38010;53.264;6.592;2022-09-02T04:56:30;20.10;99.90
51996;DHT22;38010;53.264;6.592;2022-09-02T04:59:00;20.00;99.90
51996;DHT22;38010;53.264;6.592;2022-09-02T05:01:32;20.00;99.90
51996;DHT22;38010;53.264;6.592;2022-09-02T05:04:03;20.00;99.90
51996;DHT22;38010;53.264;6.592;2022-09-02T05:06:39;20.00;99.90
51996;DHT22;38010;53.264;6.592;2022-09-02T05:09:07;20.00;99.90
51996;DHT22;38010;53.264;6.592;2022-09-02T05:11:38;20.00;99.90
51996;DHT22;38010;53.264;6.592;2022-09-02T05:14:10;20.00;99.90
51996;DHT22;38010;53.264;6.592;2022-09-02T05:16:48;20.00;99.90
51996;DHT22;38010;53.264;6.592;2022-09-02T05:19:26;20.00;99.90
51996;DHT22;38010;53.264;6.592;2022-09-02T05:21:58;20.00;99.90
51996;DHT22;38010;53.264;6.592;2022-09-02T05:24:28;20.10;99.90
51996;DHT22;38010;53.264;6.592;2022-09-02T05:27:00;20.00;99.90
51996;DHT22;38010;53.264;6.592;2022-09-02T05:29:30;20.00;99.90
51996;DHT22;38010;53.264;6.592;2022-09-02T05:32:02;20.00;99.90
51996;DHT22;38010;53.264;6.592;2022-09-02T05:34:34;20.10;99.90
51996;DHT22;38010;53.264;6.592;2022-09-02T05:37:09;20.00;99.90
51996;DHT22;38010;53.264;6.592;2022-09-02T05:39:39;20.00;99.90
51996;DHT22;38010;53.264;6.592;2022-09-02T05:42:19;20.00;99.90
51996;DHT22;38010;53.264;6.592;2022-09-02T05:44:53;20.00;99.90
51996;DHT22;38010;53.264;6.592;2022-09-02T05:47:21;20.10;99.90
51996;DHT22;38010;53.264;6.592;2022-09-02T05:49:57;20.00;99.90
51996;DHT22;38010;53.264;6.592;2022-09-02T05:52:30;20.10;99.90
51996;DHT22;38010;53.264;6.592;2022-09-02T05:54:59;20.00;99.90
51996;DHT22;38010;53.264;6.592;2022-09-02T05:57:28;20.00;99.90
51996;DHT22;38010;53.264;6.592;2022-09-02T06:00:00;20.00;99.90
51996;DHT22;38010;53.264;6.592;2022-09-02T06:02:27;20.00;99.90
51996;DHT22;38010;53.264;6.592;2022-09-02T06:05:02;20.00;99.90
51996;DHT22;38010;53.264;6.592;2022-09-02T06:07:31;20.10;99.90
51996;DHT22;38010;53.264;6.592;2022-09-02T06:10:06;20.10;99.90
51996;DHT22;38010;53.264;6.592;2022-09-02T06:12:34;20.00;99.90
51996;DHT22;38010;53.264;6.592;2022-09-02T06:15:01;20.00;99.90
51996;DHT22;38010;53.264;6.592;2022-09-02T06:17:29;20.10;99.90
51996;DHT22;38010;53.264;6.592;2022-09-02T06:19:56;20.10;99.90
51996;DHT22;38010;53.264;6.592;2022-09-02T06:22:34;20.10;99.90
51996;DHT22;38010;53.264;6.592;2022-09-02T06:25:05;20.10;99.90
51996;DHT22;38010;53.264;6.592;2022-09-02T06:27:33;20.10;99.90
51996;DHT22;38010;53.264;6.592;2022-09-02T06:30:03;20.20;99.90
51996;DHT22;38010;53.264;6.592;2022-09-02T06:32:32;20.20;99.90
51996;DHT22;38010;53.264;6.592;2022-09-02T06:35:04;20.20;99.90
51996;DHT22;38010;53.264;6.592;2022-09-02T06:37:36;20.20;99.90
51996;DHT22;38010;53.264;6.592;2022-09-02T06:40:06;20.20;99.90
51996;DHT22;38010;53.264;6.592;2022-09-02T06:42:34;20.20;99.90
51996;DHT22;38010;53.264;6.592;2022-09-02T06:45:05;20.20;99.90
51996;DHT22;38010;53.264;6.592;2022-09-02T06:47:33;20.20;99.90
51996;DHT22;38010;53.264;6.592;2022-09-02T06:50:04;20.30;99.90
51996;DHT22;38010;53.264;6.592;2022-09-02T06:52:34;20.30;99.90
51996;DHT22;38010;53.264;6.592;2022-09-02T06:55:06;20.30;99.90
51996;DHT22;38010;53.264;6.592;2022-09-02T06:57:40;20.30;99.90
51996;DHT22;38010;53.264;6.592;2022-09-02T07:00:19;20.30;99.90
51996;DHT22;38010;53.264;6.592;2022-09-02T07:02:49;20.30;99.90
51996;DHT22;38010;53.264;6.592;2022-09-02T07:05:38;20.30;99.90
51996;DHT22;38010;53.264;6.592;2022-09-02T07:08:12;20.30;99.90
51996;DHT22;38010;53.264;6.592;2022-09-02T07:10:47;20.30;99.90
51996;DHT22;38010;53.264;6.592;2022-09-02T07:13:18;20.30;99.90
51996;DHT22;38010;53.264;6.592;2022-09-02T07:15:46;20.30;99.90
51996;DHT22;38010;53.264;6.592;2022-09-02T07:18:12;20.30;99.90
51996;DHT22;38010;53.264;6.592;2022-09-02T07:20:39;20.30;99.90
51996;DHT22;38010;53.264;6.592;2022-09-02T07:23:11;20.30;99.90
51996;DHT22;38010;53.264;6.592;2022-09-02T07:25:43;20.30;99.90
51996;DHT22;38010;53.264;6.592;2022-09-02T07:28:17;20.30;99.90
51996;DHT22;38010;53.264;6.592;2022-09-02T07:30:44;20.30;99.90
51996;DHT22;38010;53.264;6.592;2022-09-02T07:33:15;20.30;99.90
51996;DHT22;38010;53.264;6.592;2022-09-02T07:35:43;20.40;99.90
51996;DHT22;38010;53.264;6.592;2022-09-02T07:38:18;20.30;99.90
51996;DHT22;38010;53.264;6.592;2022-09-02T07:40:50;20.30;99.90
51996;DHT22;38010;53.264;6.592;2022-09-02T07:43:17;20.40;99.90
51996;DHT22;38010;53.264;6.592;2022-09-02T07:45:46;20.40;99.90
51996;DHT22;38010;53.264;6.592;2022-09-02T07:48:15;20.40;99.90
51996;DHT22;38010;53.264;6.592;2022-09-02T07:50:45;20.40;99.90
51996;DHT22;38010;53.264;6.592;2022-09-02T07:53:18;20.40;99.90
51996;DHT22;38010;53.264;6.592;2022-09-02T07:55:48;20.40;99.90
51996;DHT22;38010;53.264;6.592;2022-09-02T07:58:17;20.40;99.90
51996;DHT22;38010;53.264;6.592;2022-09-02T08:00:49;20.40;99.90
51996;DHT22;38010;53.264;6.592;2022-09-02T08:03:19;20.50;99.90
51996;DHT22;38010;53.264;6.592;2022-09-02T08:05:54;20.40;99.90
51996;DHT22;38010;53.264;6.592;2022-09-02T08:08:26;20.40;99.90
51996;DHT22;38010;53.264;6.592;2022-09-02T08:11:02;20.40;99.90
51996;DHT22;38010;53.264;6.592;2022-09-02T08:13:33;20.40;99.90
51996;DHT22;38010;53.264;6.592;2022-09-02T08:16:00;20.40;99.90
51996;DHT22;38010;53.264;6.592;2022-09-02T08:18:29;20.40;99.90
51996;DHT22;38010;53.264;6.592;2022-09-02T08:20:58;20.40;99.90
51996;DHT22;38010;53.264;6.592;2022-09-02T08:23:30;20.40;99.90
51996;DHT22;38010;53.264;6.592;2022-09-02T08:26:04;20.50;99.90
51996;DHT22;38010;53.264;6.592;2022-09-02T08:28:41;20.40;99.90
51996;DHT22;38010;53.264;6.592;2022-09-02T08:31:15;20.40;99.90
51996;DHT22;38010;53.264;6.592;2022-09-02T08:33:41;20.40;99.90
51996;DHT22;38010;53.264;6.592;2022-09-02T08:36:10;20.40;99.90
51996;DHT22;38010;53.264;6.592;2022-09-02T08:38:43;20.50;99.90
51996;DHT22;38010;53.264;6.592;2022-09-02T08:41:22;20.40;99.90
51996;DHT22;38010;53.264;6.592;2022-09-02T08:43:51;20.50;99.90
51996;DHT22;38010;53.264;6.592;2022-09-02T08:46:21;20.40;99.90
51996;DHT22;38010;53.264;6.592;2022-09-02T08:49:01;20.50;99.90
51996;DHT22;38010;53.264;6.592;2022-09-02T08:54:07;20.50;99.90
51996;DHT22;38010;53.264;6.592;2022-09-02T08:56:38;20.50;99.90
51996;DHT22;38010;53.264;6.592;2022-09-02T08:59:08;20.50;99.90
51996;DHT22;38010;53.264;6.592;2022-09-02T09:01:52;20.50;99.90
51996;DHT22;38010;53.264;6.592;2022-09-02T09:04:31;20.50;99.90
51996;DHT22;38010;53.264;6.592;2022-09-02T09:07:24;20.50;99.90
51996;DHT22;38010;53.264;6.592;2022-09-02T09:18:32;20.50;99.90
51996;DHT22;38010;53.264;6.592;2022-09-02T09:21:07;20.50;99.90
51996;DHT22;38010;53.264;6.592;2022-09-02T09:23:39;20.50;99.90
51996;DHT22;38010;53.264;6.592;2022-09-02T09:26:20;20.50;99.90
51996;DHT22;38010;53.264;6.592;2022-09-02T09:28:57;20.50;99.90
51996;DHT22;38010;53.264;6.592;2022-09-02T09:31:30;20.50;99.90
51996;DHT22;38010;53.264;6.592;2022-09-02T09:34:06;20.50;99.90
51996;DHT22;38010;53.264;6.592;2022-09-02T09:39:29;20.50;99.90
51996;DHT22;38010;53.264;6.592;2022-09-02T09:42:02;20.50;99.90
51996;DHT22;38010;53.264;6.592;2022-09-02T09:47:13;20.50;99.90
51996;DHT22;38010;53.264;6.592;2022-09-02T09:49:41;20.50;99.90
51996;DHT22;38010;53.264;6.592;2022-09-02T09:52:20;20.50;99.90
51996;DHT22;38010;53.264;6.592;2022-09-02T09:55:12;20.50;99.90
51996;DHT22;38010;53.264;6.592;2022-09-02T09:57:43;20.50;99.90
51996;DHT22;38010;53.264;6.592;2022-09-02T10:02:51;20.50;99.90
51996;DHT22;38010;53.264;6.592;2022-09-02T10:05:34;20.60;99.90
51996;DHT22;38010;53.264;6.592;2022-09-02T10:11:04;20.60;99.90
51996;DHT22;38010;53.264;6.592;2022-09-02T10:13:38;20.60;99.90
51996;DHT22;38010;53.264;6.592;2022-09-02T10:25:57;20.60;99.90
51996;DHT22;38010;53.264;6.592;2022-09-02T10:31:36;20.60;99.90
51996;DHT22;38010;53.264;6.592;2022-09-02T10:34:20;20.50;99.90
51996;DHT22;38010;53.264;6.592;2022-09-02T10:37:10;20.50;99.90
51996;DHT22;38010;53.264;6.592;2022-09-02T10:42:56;20.50;99.90
51996;DHT22;38010;53.264;6.592;2022-09-02T10:45:48;20.50;99.90
51996;DHT22;38010;53.264;6.592;2022-09-02T10:57:16;20.50;99.90
51996;DHT22;38010;53.264;6.592;2022-09-02T11:02:30;20.60;99.90
51996;DHT22;38010;53.264;6.592;2022-09-02T11:10:35;20.60;99.90
51996;DHT22;38010;53.264;6.592;2022-09-02T11:13:18;20.60;99.90
51996;DHT22;38010;53.264;6.592;2022-09-02T11:27:16;20.60;99.90
51996;DHT22;38010;53.264;6.592;2022-09-02T11:29:59;20.60;99.90
51996;DHT22;38010;53.264;6.592;2022-09-02T11:32:46;20.60;99.90
51996;DHT22;38010;53.264;6.592;2022-09-02T11:35:24;20.70;99.90
51996;DHT22;38010;53.264;6.592;2022-09-02T11:38:04;20.70;99.90
51996;DHT22;38010;53.264;6.592;2022-09-02T11:43:36;20.70;99.90
51996;DHT22;38010;53.264;6.592;2022-09-02T11:54:31;20.70;99.90
51996;DHT22;38010;53.264;6.592;2022-09-02T11:57:02;20.70;99.90
51996;DHT22;38010;53.264;6.592;2022-09-02T12:08:00;20.80;99.90
51996;DHT22;38010;53.264;6.592;2022-09-02T12:21:35;20.80;99.90
51996;DHT22;38010;53.264;6.592;2022-09-02T12:24:09;20.80;99.90
51996;DHT22;38010;53.264;6.592;2022-09-02T12:31:43;20.90;99.90
51996;DHT22;38010;53.264;6.592;2022-09-02T12:36:57;20.90;99.90
51996;DHT22;38010;53.264;6.592;2022-09-02T12:44:32;21.00;99.90
51996;DHT22;38010;53.264;6.592;2022-09-02T12:47:07;21.10;99.90
51996;DHT22;38010;53.264;6.592;2022-09-02T12:55:27;21.30;99.90
51996;DHT22;38010;53.264;6.592;2022-09-02T12:58:10;21.40;99.90
51996;DHT22;38010;53.264;6.592;2022-09-02T13:03:38;21.70;99.90
51996;DHT22;38010;53.264;6.592;2022-09-02T13:20:31;22.60;99.00
51996;DHT22;38010;53.264;6.592;2022-09-02T13:32:23;23.20;98.40
51996;DHT22;38010;53.264;6.592;2022-09-02T13:34:54;23.40;98.30
51996;DHT22;38010;53.264;6.592;2022-09-02T13:37:41;23.60;98.10
51996;DHT22;38010;53.264;6.592;2022-09-02T13:40:18;23.80;97.90
51996;DHT22;38010;53.264;6.592;2022-09-02T13:42:50;24.00;97.60
51996;DHT22;38010;53.264;6.592;2022-09-02T13:47:52;24.40;97.00
51996;DHT22;38010;53.264;6.592;2022-09-02T13:50:22;24.60;97.10
51996;DHT22;38010;53.264;6.592;2022-09-02T13:53:01;24.70;96.80
51996;DHT22;38010;53.264;6.592;2022-09-02T13:55:29;24.90;96.70
51996;DHT22;38010;53.264;6.592;2022-09-02T13:57:59;24.90;96.50
51996;DHT22;38010;53.264;6.592;2022-09-02T14:00:32;25.00;96.50
51996;DHT22;38010;53.264;6.592;2022-09-02T14:03:23;24.90;96.50
51996;DHT22;38010;53.264;6.592;2022-09-02T14:05:52;24.80;96.80
51996;DHT22;38010;53.264;6.592;2022-09-02T14:08:23;24.70;96.40
51996;DHT22;38010;53.264;6.592;2022-09-02T14:10:53;24.70;96.40
51996;DHT22;38010;53.264;6.592;2022-09-02T14:13:20;24.60;96.20
51996;DHT22;38010;53.264;6.592;2022-09-02T14:15:47;24.50;96.20
51996;DHT22;38010;53.264;6.592;2022-09-02T14:18:22;24.40;96.30
51996;DHT22;38010;53.264;6.592;2022-09-02T14:21:17;24.30;96.20
51996;DHT22;38010;53.264;6.592;2022-09-02T14:23:52;24.20;96.30
51996;DHT22;38010;53.264;6.592;2022-09-02T14:28:56;24.10;96.50
51996;DHT22;38010;53.264;6.592;2022-09-02T14:31:29;24.10;96.60
51996;DHT22;38010;53.264;6.592;2022-09-02T14:34:00;24.00;96.60
51996;DHT22;38010;53.264;6.592;2022-09-02T14:36:36;24.00;96.60
51996;DHT22;38010;53.264;6.592;2022-09-02T14:39:14;24.00;96.60
51996;DHT22;38010;53.264;6.592;2022-09-02T14:41:52;23.90;96.60
51996;DHT22;38010;53.264;6.592;2022-09-02T14:44:29;23.90;96.60
51996;DHT22;38010;53.264;6.592;2022-09-02T14:47:04;23.90;96.60
51996;DHT22;38010;53.264;6.592;2022-09-02T14:49:44;23.90;96.60
51996;DHT22;38010;53.264;6.592;2022-09-02T14:52:18;23.80;96.60
51996;DHT22;38010;53.264;6.592;2022-09-02T14:54:47;23.80;96.60
51996;DHT22;38010;53.264;6.592;2022-09-02T14:57:25;23.80;96.90
51996;DHT22;38010;53.264;6.592;2022-09-02T14:59:57;23.70;96.70
51996;DHT22;38010;53.264;6.592;2022-09-02T15:04:55;23.60;96.80
51996;DHT22;38010;53.264;6.592;2022-09-02T15:07:22;23.60;96.80
51996;DHT22;38010;53.264;6.592;2022-09-02T15:09:49;23.50;97.10
51996;DHT22;38010;53.264;6.592;2022-09-02T15:12:20;23.40;96.90
51996;DHT22;38010;53.264;6.592;2022-09-02T15:14:53;23.40;97.00
51996;DHT22;38010;53.264;6.592;2022-09-02T15:17:19;23.30;97.00
51996;DHT22;38010;53.264;6.592;2022-09-02T15:19:46;23.30;97.00
51996;DHT22;38010;53.264;6.592;2022-09-02T15:22:14;23.20;97.00
51996;DHT22;38010;53.264;6.592;2022-09-02T15:24:41;23.20;97.00
51996;DHT22;38010;53.264;6.592;2022-09-02T15:27:09;23.20;97.10
51996;DHT22;38010;53.264;6.592;2022-09-02T15:29:36;23.10;97.10
51996;DHT22;38010;53.264;6.592;2022-09-02T15:32:02;23.10;97.10
51996;DHT22;38010;53.264;6.592;2022-09-02T15:34:29;23.10;97.20
51996;DHT22;38010;53.264;6.592;2022-09-02T15:36:56;23.10;97.20
51996;DHT22;38010;53.264;6.592;2022-09-02T15:39:24;23.10;97.20
51996;DHT22;38010;53.264;6.592;2022-09-02T15:41:52;23.10;97.20
51996;DHT22;38010;53.264;6.592;2022-09-02T15:44:23;23.00;97.20
51996;DHT22;38010;53.264;6.592;2022-09-02T15:46:55;23.00;97.20
51996;DHT22;38010;53.264;6.592;2022-09-02T15:49:23;23.00;97.20
51996;DHT22;38010;53.264;6.592;2022-09-02T15:51:51;22.90;97.20
51996;DHT22;38010;53.264;6.592;2022-09-02T15:54:20;23.00;97.20
51996;DHT22;38010;53.264;6.592;2022-09-02T15:56:47;22.90;97.20
51996;DHT22;38010;53.264;6.592;2022-09-02T15:59:16;22.90;97.10
51996;DHT22;38010;53.264;6.592;2022-09-02T16:01:50;22.90;97.20
51996;DHT22;38010;53.264;6.592;2022-09-02T16:04:17;22.80;97.10
51996;DHT22;38010;53.264;6.592;2022-09-02T16:06:48;22.80;97.10
51996;DHT22;38010;53.264;6.592;2022-09-02T16:09:16;22.80;97.10
51996;DHT22;38010;53.264;6.592;2022-09-02T16:11:47;22.70;97.10
51996;DHT22;38010;53.264;6.592;2022-09-02T16:14:14;22.70;97.20
51996;DHT22;38010;53.264;6.592;2022-09-02T16:16:41;22.60;97.20
51996;DHT22;38010;53.264;6.592;2022-09-02T16:19:10;22.60;97.20
51996;DHT22;38010;53.264;6.592;2022-09-02T16:21:42;22.50;97.30
51996;DHT22;38010;53.264;6.592;2022-09-02T16:24:11;22.50;97.30
51996;DHT22;38010;53.264;6.592;2022-09-02T16:26:40;22.50;97.30
51996;DHT22;38010;53.264;6.592;2022-09-02T16:29:09;22.50;97.40
51996;DHT22;38010;53.264;6.592;2022-09-02T16:31:39;22.40;97.40
51996;DHT22;38010;53.264;6.592;2022-09-02T16:36:37;22.40;97.50
51996;DHT22;38010;53.264;6.592;2022-09-02T16:39:04;22.30;97.50
51996;DHT22;38010;53.264;6.592;2022-09-02T16:41:34;22.30;97.80
51996;DHT22;38010;53.264;6.592;2022-09-02T16:44:04;22.30;97.60
51996;DHT22;38010;53.264;6.592;2022-09-02T16:46:34;22.30;97.60
51996;DHT22;38010;53.264;6.592;2022-09-02T16:49:03;22.20;97.60
51996;DHT22;38010;53.264;6.592;2022-09-02T16:51:30;22.20;97.70
51996;DHT22;38010;53.264;6.592;2022-09-02T16:54:02;22.20;97.70
51996;DHT22;38010;53.264;6.592;2022-09-02T16:56:29;22.20;97.70
51996;DHT22;38010;53.264;6.592;2022-09-02T16:59:02;22.20;97.80
51996;DHT22;38010;53.264;6.592;2022-09-02T17:01:30;22.10;97.80
51996;DHT22;38010;53.264;6.592;2022-09-02T17:03:57;22.10;97.80
51996;DHT22;38010;53.264;6.592;2022-09-02T17:06:25;22.10;97.90
51996;DHT22;38010;53.264;6.592;2022-09-02T17:08:52;22.10;97.90
51996;DHT22;38010;53.264;6.592;2022-09-02T17:11:30;22.10;97.90
51996;DHT22;38010;53.264;6.592;2022-09-02T17:14:01;22.10;97.90
51996;DHT22;38010;53.264;6.592;2022-09-02T17:16:31;22.10;98.00
51996;DHT22;38010;53.264;6.592;2022-09-02T17:18:59;22.00;98.00
51996;DHT22;38010;53.264;6.592;2022-09-02T17:23:56;22.00;98.00
51996;DHT22;38010;53.264;6.592;2022-09-02T17:26:24;22.00;98.10
51996;DHT22;38010;53.264;6.592;2022-09-02T17:28:52;22.00;98.10
51996;DHT22;38010;53.264;6.592;2022-09-02T17:33:53;21.90;98.10
51996;DHT22;38010;53.264;6.592;2022-09-02T17:36:20;22.00;98.20
51996;DHT22;38010;53.264;6.592;2022-09-02T17:38:46;21.90;98.20
51996;DHT22;38010;53.264;6.592;2022-09-02T17:41:17;21.90;98.20
51996;DHT22;38010;53.264;6.592;2022-09-02T17:44:05;21.90;98.30
51996;DHT22;38010;53.264;6.592;2022-09-02T17:46:33;21.90;98.30
51996;DHT22;38010;53.264;6.592;2022-09-02T17:48:59;21.90;98.30
51996;DHT22;38010;53.264;6.592;2022-09-02T17:51:25;21.90;98.40
51996;DHT22;38010;53.264;6.592;2022-09-02T17:53:52;21.90;98.40
51996;DHT22;38010;53.264;6.592;2022-09-02T18:04:51;21.80;98.50
51996;DHT22;38010;53.264;6.592;2022-09-02T18:09:56;21.80;98.60
51996;DHT22;38010;53.264;6.592;2022-09-02T18:12:24;21.80;98.60
51996;DHT22;38010;53.264;6.592;2022-09-02T18:14:58;21.70;98.60
51996;DHT22;38010;53.264;6.592;2022-09-02T18:17:33;21.80;98.60
51996;DHT22;38010;53.264;6.592;2022-09-02T18:23:01;21.80;98.70
51996;DHT22;38010;53.264;6.592;2022-09-02T18:26:04;21.80;98.70
51996;DHT22;38010;53.264;6.592;2022-09-02T18:28:55;21.80;98.80
51996;DHT22;38010;53.264;6.592;2022-09-02T18:31:31;21.80;98.80
51996;DHT22;38010;53.264;6.592;2022-09-02T18:34:11;21.70;98.80
51996;DHT22;38010;53.264;6.592;2022-09-02T18:36:50;21.80;98.90
51996;DHT22;38010;53.264;6.592;2022-09-02T18:39:48;21.70;98.90
51996;DHT22;38010;53.264;6.592;2022-09-02T18:45:34;21.70;98.90
51996;DHT22;38010;53.264;6.592;2022-09-02T18:48:13;21.70;99.00
51996;DHT22;38010;53.264;6.592;2022-09-02T18:50:45;21.70;99.00
51996;DHT22;38010;53.264;6.592;2022-09-02T18:53:15;21.70;99.10
51996;DHT22;38010;53.264;6.592;2022-09-02T18:55:45;21.70;99.10
51996;DHT22;38010;53.264;6.592;2022-09-02T18:58:38;21.70;99.10
51996;DHT22;38010;53.264;6.592;2022-09-02T19:01:21;21.70;99.10
51996;DHT22;38010;53.264;6.592;2022-09-02T19:03:50;21.70;99.20
51996;DHT22;38010;53.264;6.592;2022-09-02T19:06:21;21.70;99.20
51996;DHT22;38010;53.264;6.592;2022-09-02T19:08:58;21.70;99.20